sensor_id;sensor_type;location;lat;lon;timestamp;P1;durP1;ratioP1;P2;durP2;ratioP2
13238;SDS011;6686;51.292;4.166;2023-02-22T00:02:46;73.93;;;33.17;;
13238;SDS011;6686;51.292;4.166;2023-02-22T00:05:32;76.77;;;32.30;;
13238;SDS011;6686;51.292;4.166;2023-02-22T00:08:18;69.17;;;34.97;;
13238;SDS011;6686;51.292;4.166;2023-02-22T00:14:04;80.20;;;35.03;;
13238;SDS011;6686;51.292;4.166;2023-02-22T00:16:50;68.90;;;33.17;;
13238;SDS011;6686;51.292;4.166;2023-02-22T00:19:37;83.67;;;36.37;;
13238;SDS011;6686;51.292;4.166;2023-02-22T00:22:23;104.40;;;46.63;;
13238;SDS011;6686;51.292;4.166;2023-02-22T00:25:09;90.30;;;38.80;;
13238;SDS011;6686;51.292;4.166;2023-02-22T00:27:55;80.57;;;34.90;;
13238;SDS011;6686;51.292;4.166;2023-02-22T00:30:41;89.87;;;35.50;;
13238;SDS011;6686;51.292;4.166;2023-02-22T00:33:30;88.30;;;37.53;;
13238;SDS011;6686;51.292;4.166;2023-02-22T00:36:17;86.53;;;36.13;;
13238;SDS011;6686;51.292;4.166;2023-02-22T00:39:03;87.43;;;34.70;;
13238;SDS011;6686;51.292;4.166;2023-02-22T00:41:49;89.83;;;37.03;;
13238;SDS011;6686;51.292;4.166;2023-02-22T00:44:35;91.87;;;37.47;;
13238;SDS011;6686;51.292;4.166;2023-02-22T00:47:20;103.50;;;37.90;;
13238;SDS011;6686;51.292;4.166;2023-02-22T00:50:07;119.65;;;44.78;;
13238;SDS011;6686;51.292;4.166;2023-02-22T00:52:53;119.83;;;40.43;;
13238;SDS011;6686;51.292;4.166;2023-02-22T00:55:38;130.60;;;42.17;;
13238;SDS011;6686;51.292;4.166;2023-02-22T00:58:25;116.37;;;41.03;;
13238;SDS011;6686;51.292;4.166;2023-02-22T01:01:11;124.53;;;39.67;;
13238;SDS011;6686;51.292;4.166;2023-02-22T01:03:57;122.90;;;38.33;;
13238;SDS011;6686;51.292;4.166;2023-02-22T01:06:43;155.37;;;38.30;;
13238;SDS011;6686;51.292;4.166;2023-02-22T01:09:28;154.67;;;38.93;;
13238;SDS011;6686;51.292;4.166;2023-02-22T01:12:14;117.17;;;36.90;;
13238;SDS011;6686;51.292;4.166;2023-02-22T01:15:02;94.17;;;35.77;;
13238;SDS011;6686;51.292;4.166;2023-02-22T01:17:50;122.27;;;36.67;;
13238;SDS011;6686;51.292;4.166;2023-02-22T01:20:35;136.10;;;37.60;;
13238;SDS011;6686;51.292;4.166;2023-02-22T01:23:21;92.73;;;34.77;;
13238;SDS011;6686;51.292;4.166;2023-02-22T01:26:09;119.07;;;35.97;;
13238;SDS011;6686;51.292;4.166;2023-02-22T01:28:54;113.43;;;37.03;;
13238;SDS011;6686;51.292;4.166;2023-02-22T01:31:41;96.87;;;35.27;;
13238;SDS011;6686;51.292;4.166;2023-02-22T01:34:29;102.80;;;35.67;;
13238;SDS011;6686;51.292;4.166;2023-02-22T01:37:15;96.27;;;35.30;;
13238;SDS011;6686;51.292;4.166;2023-02-22T01:40:03;102.43;;;37.70;;
13238;SDS011;6686;51.292;4.166;2023-02-22T01:42:52;114.00;;;34.07;;
13238;SDS011;6686;51.292;4.166;2023-02-22T01:45:45;108.90;;;34.40;;
13238;SDS011;6686;51.292;4.166;2023-02-22T01:51:31;99.40;;;34.87;;
13238;SDS011;6686;51.292;4.166;2023-02-22T01:54:19;96.77;;;36.03;;
13238;SDS011;6686;51.292;4.166;2023-02-22T01:57:07;91.23;;;33.20;;
13238;SDS011;6686;51.292;4.166;2023-02-22T01:59:52;107.07;;;43.80;;
13238;SDS011;6686;51.292;4.166;2023-02-22T02:02:37;107.80;;;37.90;;
13238;SDS011;6686;51.292;4.166;2023-02-22T02:05:25;88.07;;;34.63;;
13238;SDS011;6686;51.292;4.166;2023-02-22T02:08:35;102.50;;;37.87;;
13238;SDS011;6686;51.292;4.166;2023-02-22T02:11:21;97.33;;;33.97;;
13238;SDS011;6686;51.292;4.166;2023-02-22T02:14:01;97.60;;;34.90;;
13238;SDS011;6686;51.292;4.166;2023-02-22T02:16:48;130.87;;;36.57;;
13238;SDS011;6686;51.292;4.166;2023-02-22T02:19:38;92.00;;;36.33;;
13238;SDS011;6686;51.292;4.166;2023-02-22T02:32:15;88.17;;;32.00;;
13238;SDS011;6686;51.292;4.166;2023-02-22T02:35:18;70.90;;;29.97;;
13238;SDS011;6686;51.292;4.166;2023-02-22T02:43:59;79.13;;;28.77;;
13238;SDS011;6686;51.292;4.166;2023-02-22T02:49:39;65.07;;;27.30;;
13238;SDS011;6686;51.292;4.166;2023-02-22T02:52:24;69.07;;;26.70;;
13238;SDS011;6686;51.292;4.166;2023-02-22T02:55:10;85.60;;;28.43;;
13238;SDS011;6686;51.292;4.166;2023-02-22T02:57:56;80.10;;;34.80;;
13238;SDS011;6686;51.292;4.166;2023-02-22T03:00:43;68.47;;;29.23;;
13238;SDS011;6686;51.292;4.166;2023-02-22T03:09:40;65.37;;;28.83;;
13238;SDS011;6686;51.292;4.166;2023-02-22T03:12:31;68.63;;;28.47;;
13238;SDS011;6686;51.292;4.166;2023-02-22T03:15:18;67.00;;;29.77;;
13238;SDS011;6686;51.292;4.166;2023-02-22T03:18:06;72.43;;;30.00;;
13238;SDS011;6686;51.292;4.166;2023-02-22T03:21:00;75.00;;;29.93;;
13238;SDS011;6686;51.292;4.166;2023-02-22T03:24:08;69.13;;;27.33;;
13238;SDS011;6686;51.292;4.166;2023-02-22T03:30:04;65.73;;;28.83;;
13238;SDS011;6686;51.292;4.166;2023-02-22T03:32:46;60.57;;;26.73;;
13238;SDS011;6686;51.292;4.166;2023-02-22T03:35:32;62.57;;;25.03;;
13238;SDS011;6686;51.292;4.166;2023-02-22T03:38:18;64.87;;;27.83;;
13238;SDS011;6686;51.292;4.166;2023-02-22T03:41:04;51.23;;;26.37;;
13238;SDS011;6686;51.292;4.166;2023-02-22T03:44:25;62.47;;;25.43;;
13238;SDS011;6686;51.292;4.166;2023-02-22T03:46:42;62.50;;;26.67;;
13238;SDS011;6686;51.292;4.166;2023-02-22T03:52:19;79.13;;;27.03;;
13238;SDS011;6686;51.292;4.166;2023-02-22T03:57:00;56.53;;;30.98;;
13238;SDS011;6686;51.292;4.166;2023-02-22T03:59:40;58.40;;;27.70;;
13238;SDS011;6686;51.292;4.166;2023-02-22T04:02:25;57.37;;;25.70;;
13238;SDS011;6686;51.292;4.166;2023-02-22T04:05:11;55.87;;;25.87;;
13238;SDS011;6686;51.292;4.166;2023-02-22T04:07:59;58.37;;;28.27;;
13238;SDS011;6686;51.292;4.166;2023-02-22T04:10:46;51.47;;;25.23;;
13238;SDS011;6686;51.292;4.166;2023-02-22T04:13:32;57.47;;;27.53;;
13238;SDS011;6686;51.292;4.166;2023-02-22T04:16:18;63.73;;;28.63;;
13238;SDS011;6686;51.292;4.166;2023-02-22T04:19:04;56.90;;;25.93;;
13238;SDS011;6686;51.292;4.166;2023-02-22T04:21:50;56.97;;;27.93;;
13238;SDS011;6686;51.292;4.166;2023-02-22T04:24:36;59.90;;;27.67;;
13238;SDS011;6686;51.292;4.166;2023-02-22T04:27:22;59.90;;;29.50;;
13238;SDS011;6686;51.292;4.166;2023-02-22T04:30:08;66.47;;;29.20;;
13238;SDS011;6686;51.292;4.166;2023-02-22T04:32:55;54.77;;;27.90;;
13238;SDS011;6686;51.292;4.166;2023-02-22T04:35:42;56.17;;;25.87;;
13238;SDS011;6686;51.292;4.166;2023-02-22T04:38:28;55.70;;;28.50;;
13238;SDS011;6686;51.292;4.166;2023-02-22T04:41:16;57.10;;;27.83;;
13238;SDS011;6686;51.292;4.166;2023-02-22T04:44:01;57.00;;;27.90;;
13238;SDS011;6686;51.292;4.166;2023-02-22T04:46:47;57.90;;;28.03;;
13238;SDS011;6686;51.292;4.166;2023-02-22T04:49:33;57.93;;;27.67;;
13238;SDS011;6686;51.292;4.166;2023-02-22T04:52:19;57.87;;;27.73;;
13238;SDS011;6686;51.292;4.166;2023-02-22T04:55:05;56.90;;;28.47;;
13238;SDS011;6686;51.292;4.166;2023-02-22T04:57:53;53.67;;;27.37;;
13238;SDS011;6686;51.292;4.166;2023-02-22T05:00:38;50.67;;;26.27;;
13238;SDS011;6686;51.292;4.166;2023-02-22T05:03:26;50.27;;;25.57;;
13238;SDS011;6686;51.292;4.166;2023-02-22T05:06:11;50.43;;;25.47;;
13238;SDS011;6686;51.292;4.166;2023-02-22T05:08:57;43.67;;;24.33;;
13238;SDS011;6686;51.292;4.166;2023-02-22T05:11:43;40.13;;;22.30;;
13238;SDS011;6686;51.292;4.166;2023-02-22T05:14:31;41.63;;;22.33;;
13238;SDS011;6686;51.292;4.166;2023-02-22T05:17:17;48.78;;;29.00;;
13238;SDS011;6686;51.292;4.166;2023-02-22T05:20:03;41.73;;;24.70;;
13238;SDS011;6686;51.292;4.166;2023-02-22T05:22:49;42.03;;;23.57;;
13238;SDS011;6686;51.292;4.166;2023-02-22T05:25:36;40.70;;;23.77;;
13238;SDS011;6686;51.292;4.166;2023-02-22T05:28:21;43.63;;;22.97;;
13238;SDS011;6686;51.292;4.166;2023-02-22T05:31:07;38.10;;;21.80;;
13238;SDS011;6686;51.292;4.166;2023-02-22T05:33:53;38.90;;;20.83;;
13238;SDS011;6686;51.292;4.166;2023-02-22T05:36:39;37.63;;;21.80;;
13238;SDS011;6686;51.292;4.166;2023-02-22T05:39:25;34.37;;;20.33;;
13238;SDS011;6686;51.292;4.166;2023-02-22T05:42:11;35.07;;;20.57;;
13238;SDS011;6686;51.292;4.166;2023-02-22T05:44:56;34.83;;;20.27;;
13238;SDS011;6686;51.292;4.166;2023-02-22T05:47:43;36.90;;;21.30;;
13238;SDS011;6686;51.292;4.166;2023-02-22T05:50:31;40.73;;;26.63;;
13238;SDS011;6686;51.292;4.166;2023-02-22T05:53:17;40.13;;;24.17;;
13238;SDS011;6686;51.292;4.166;2023-02-22T05:56:03;42.40;;;23.40;;
13238;SDS011;6686;51.292;4.166;2023-02-22T05:58:49;43.97;;;24.90;;
13238;SDS011;6686;51.292;4.166;2023-02-22T06:01:35;44.13;;;24.23;;
13238;SDS011;6686;51.292;4.166;2023-02-22T06:04:21;41.80;;;25.37;;
13238;SDS011;6686;51.292;4.166;2023-02-22T06:07:07;44.53;;;24.53;;
13238;SDS011;6686;51.292;4.166;2023-02-22T06:09:53;42.43;;;24.53;;
13238;SDS011;6686;51.292;4.166;2023-02-22T06:12:39;43.27;;;23.83;;
13238;SDS011;6686;51.292;4.166;2023-02-22T06:15:27;37.77;;;22.87;;
13238;SDS011;6686;51.292;4.166;2023-02-22T06:18:13;40.70;;;22.30;;
13238;SDS011;6686;51.292;4.166;2023-02-22T06:21:00;41.10;;;27.83;;
13238;SDS011;6686;51.292;4.166;2023-02-22T06:23:45;49.63;;;28.60;;
13238;SDS011;6686;51.292;4.166;2023-02-22T06:26:31;47.40;;;26.03;;
13238;SDS011;6686;51.292;4.166;2023-02-22T06:29:17;52.13;;;28.00;;
13238;SDS011;6686;51.292;4.166;2023-02-22T06:32:03;63.63;;;31.33;;
13238;SDS011;6686;51.292;4.166;2023-02-22T06:34:49;63.77;;;31.63;;
13238;SDS011;6686;51.292;4.166;2023-02-22T06:37:35;61.17;;;31.97;;
13238;SDS011;6686;51.292;4.166;2023-02-22T06:40:20;68.17;;;31.63;;
13238;SDS011;6686;51.292;4.166;2023-02-22T06:43:07;60.93;;;31.23;;
13238;SDS011;6686;51.292;4.166;2023-02-22T06:45:52;71.07;;;34.57;;
13238;SDS011;6686;51.292;4.166;2023-02-22T06:48:38;65.37;;;32.17;;
13238;SDS011;6686;51.292;4.166;2023-02-22T06:51:24;65.83;;;31.77;;
13238;SDS011;6686;51.292;4.166;2023-02-22T06:54:10;64.43;;;35.15;;
13238;SDS011;6686;51.292;4.166;2023-02-22T06:56:56;62.30;;;29.77;;
13238;SDS011;6686;51.292;4.166;2023-02-22T06:59:42;61.80;;;28.63;;
13238;SDS011;6686;51.292;4.166;2023-02-22T07:02:28;53.70;;;27.13;;
13238;SDS011;6686;51.292;4.166;2023-02-22T07:05:14;49.20;;;26.10;;
13238;SDS011;6686;51.292;4.166;2023-02-22T07:08:03;59.90;;;28.37;;
13238;SDS011;6686;51.292;4.166;2023-02-22T07:10:46;49.30;;;24.90;;
13238;SDS011;6686;51.292;4.166;2023-02-22T07:13:32;44.37;;;23.83;;
13238;SDS011;6686;51.292;4.166;2023-02-22T07:16:18;40.50;;;22.47;;
13238;SDS011;6686;51.292;4.166;2023-02-22T07:19:04;34.23;;;20.73;;
13238;SDS011;6686;51.292;4.166;2023-02-22T07:21:50;34.27;;;20.33;;
13238;SDS011;6686;51.292;4.166;2023-02-22T07:24:36;33.60;;;20.67;;
13238;SDS011;6686;51.292;4.166;2023-02-22T07:27:22;29.10;;;18.90;;
13238;SDS011;6686;51.292;4.166;2023-02-22T07:30:19;26.33;;;16.83;;
13238;SDS011;6686;51.292;4.166;2023-02-22T07:33:06;30.23;;;21.17;;
13238;SDS011;6686;51.292;4.166;2023-02-22T07:35:52;34.23;;;19.30;;
13238;SDS011;6686;51.292;4.166;2023-02-22T07:38:38;30.20;;;18.47;;
13238;SDS011;6686;51.292;4.166;2023-02-22T07:41:24;32.63;;;19.33;;
13238;SDS011;6686;51.292;4.166;2023-02-22T07:44:09;27.20;;;18.87;;
13238;SDS011;6686;51.292;4.166;2023-02-22T07:46:55;27.70;;;18.77;;
13238;SDS011;6686;51.292;4.166;2023-02-22T07:49:42;27.80;;;18.53;;
13238;SDS011;6686;51.292;4.166;2023-02-22T07:52:27;29.07;;;16.73;;
13238;SDS011;6686;51.292;4.166;2023-02-22T07:55:14;25.00;;;17.43;;
13238;SDS011;6686;51.292;4.166;2023-02-22T07:58:00;27.03;;;16.47;;
13238;SDS011;6686;51.292;4.166;2023-02-22T08:00:45;23.20;;;15.50;;
13238;SDS011;6686;51.292;4.166;2023-02-22T08:03:34;25.17;;;15.50;;
13238;SDS011;6686;51.292;4.166;2023-02-22T08:06:19;23.27;;;15.70;;
13238;SDS011;6686;51.292;4.166;2023-02-22T08:09:05;22.63;;;14.17;;
13238;SDS011;6686;51.292;4.166;2023-02-22T08:11:52;21.87;;;15.20;;
13238;SDS011;6686;51.292;4.166;2023-02-22T08:14:38;23.03;;;14.97;;
13238;SDS011;6686;51.292;4.166;2023-02-22T08:17:24;19.30;;;14.03;;
13238;SDS011;6686;51.292;4.166;2023-02-22T08:20:10;21.83;;;14.33;;
13238;SDS011;6686;51.292;4.166;2023-02-22T08:22:56;25.20;;;18.53;;
13238;SDS011;6686;51.292;4.166;2023-02-22T08:25:42;24.90;;;16.77;;
13238;SDS011;6686;51.292;4.166;2023-02-22T08:28:28;21.93;;;15.27;;
13238;SDS011;6686;51.292;4.166;2023-02-22T08:31:14;21.20;;;15.20;;
13238;SDS011;6686;51.292;4.166;2023-02-22T08:34:00;22.47;;;14.77;;
13238;SDS011;6686;51.292;4.166;2023-02-22T08:36:46;24.65;;;18.85;;
13238;SDS011;6686;51.292;4.166;2023-02-22T08:39:33;22.13;;;15.20;;
13238;SDS011;6686;51.292;4.166;2023-02-22T08:42:18;23.20;;;15.50;;
13238;SDS011;6686;51.292;4.166;2023-02-22T08:45:05;21.27;;;14.90;;
13238;SDS011;6686;51.292;4.166;2023-02-22T08:47:51;20.07;;;14.77;;
13238;SDS011;6686;51.292;4.166;2023-02-22T08:50:37;19.60;;;13.93;;
13238;SDS011;6686;51.292;4.166;2023-02-22T08:53:22;19.10;;;14.53;;
13238;SDS011;6686;51.292;4.166;2023-02-22T08:56:08;17.43;;;13.20;;
13238;SDS011;6686;51.292;4.166;2023-02-22T08:58:54;20.15;;;16.58;;
13238;SDS011;6686;51.292;4.166;2023-02-22T09:01:40;23.07;;;14.77;;
13238;SDS011;6686;51.292;4.166;2023-02-22T09:04:26;17.93;;;14.17;;
13238;SDS011;6686;51.292;4.166;2023-02-22T09:07:12;21.20;;;14.63;;
13238;SDS011;6686;51.292;4.166;2023-02-22T09:09:58;17.97;;;13.93;;
13238;SDS011;6686;51.292;4.166;2023-02-22T09:12:44;19.67;;;13.13;;
13238;SDS011;6686;51.292;4.166;2023-02-22T09:15:31;19.83;;;13.43;;
13238;SDS011;6686;51.292;4.166;2023-02-22T09:18:16;19.87;;;13.13;;
13238;SDS011;6686;51.292;4.166;2023-02-22T09:21:03;19.58;;;16.12;;
13238;SDS011;6686;51.292;4.166;2023-02-22T09:23:48;18.97;;;13.60;;
13238;SDS011;6686;51.292;4.166;2023-02-22T09:26:35;19.52;;;15.50;;
13238;SDS011;6686;51.292;4.166;2023-02-22T09:29:20;19.60;;;13.63;;
13238;SDS011;6686;51.292;4.166;2023-02-22T09:32:06;18.27;;;13.47;;
13238;SDS011;6686;51.292;4.166;2023-02-22T09:34:52;18.93;;;13.70;;
13238;SDS011;6686;51.292;4.166;2023-02-22T09:37:37;18.33;;;13.73;;
13238;SDS011;6686;51.292;4.166;2023-02-22T09:40:24;17.83;;;12.53;;
13238;SDS011;6686;51.292;4.166;2023-02-22T09:43:46;19.67;;;14.33;;
13238;SDS011;6686;51.292;4.166;2023-02-22T09:46:20;22.23;;;13.27;;
13238;SDS011;6686;51.292;4.166;2023-02-22T09:54:44;21.10;;;15.53;;
13238;SDS011;6686;51.292;4.166;2023-02-22T09:57:39;16.40;;;13.47;;
13238;SDS011;6686;51.292;4.166;2023-02-22T10:00:21;20.73;;;14.17;;
13238;SDS011;6686;51.292;4.166;2023-02-22T10:03:11;16.90;;;12.50;;
13238;SDS011;6686;51.292;4.166;2023-02-22T10:06:11;17.67;;;13.67;;
13238;SDS011;6686;51.292;4.166;2023-02-22T10:08:58;19.03;;;13.73;;
13238;SDS011;6686;51.292;4.166;2023-02-22T10:12:04;19.17;;;13.33;;
13238;SDS011;6686;51.292;4.166;2023-02-22T10:14:50;20.30;;;13.37;;
13238;SDS011;6686;51.292;4.166;2023-02-22T10:17:44;15.83;;;12.17;;
13238;SDS011;6686;51.292;4.166;2023-02-22T10:20:52;17.80;;;12.83;;
13238;SDS011;6686;51.292;4.166;2023-02-22T10:23:54;16.30;;;12.03;;
13238;SDS011;6686;51.292;4.166;2023-02-22T10:26:38;19.67;;;13.37;;
13238;SDS011;6686;51.292;4.166;2023-02-22T10:32:19;16.90;;;12.70;;
13238;SDS011;6686;51.292;4.166;2023-02-22T10:35:09;17.70;;;13.33;;
13238;SDS011;6686;51.292;4.166;2023-02-22T10:37:57;18.23;;;13.97;;
13238;SDS011;6686;51.292;4.166;2023-02-22T10:40:38;20.67;;;14.80;;
13238;SDS011;6686;51.292;4.166;2023-02-22T10:43:24;19.80;;;14.93;;
13238;SDS011;6686;51.292;4.166;2023-02-22T10:46:11;21.20;;;15.53;;
13238;SDS011;6686;51.292;4.166;2023-02-22T10:48:56;18.43;;;14.37;;
13238;SDS011;6686;51.292;4.166;2023-02-22T10:51:41;19.98;;;16.05;;
13238;SDS011;6686;51.292;4.166;2023-02-22T10:54:32;20.67;;;15.50;;
13238;SDS011;6686;51.292;4.166;2023-02-22T10:57:21;20.00;;;13.37;;
13238;SDS011;6686;51.292;4.166;2023-02-22T11:05:52;20.42;;;16.17;;
13238;SDS011;6686;51.292;4.166;2023-02-22T11:08:38;19.20;;;15.33;;
13238;SDS011;6686;51.292;4.166;2023-02-22T11:11:24;20.63;;;15.40;;
13238;SDS011;6686;51.292;4.166;2023-02-22T11:14:10;23.20;;;16.47;;
13238;SDS011;6686;51.292;4.166;2023-02-22T11:16:56;19.83;;;15.37;;
13238;SDS011;6686;51.292;4.166;2023-02-22T11:19:48;22.33;;;15.03;;
13238;SDS011;6686;51.292;4.166;2023-02-22T11:22:38;19.93;;;15.60;;
13238;SDS011;6686;51.292;4.166;2023-02-22T11:25:24;22.47;;;16.47;;
13238;SDS011;6686;51.292;4.166;2023-02-22T11:28:29;23.20;;;16.73;;
13238;SDS011;6686;51.292;4.166;2023-02-22T11:31:09;24.63;;;17.47;;
13238;SDS011;6686;51.292;4.166;2023-02-22T11:33:54;20.10;;;17.07;;
13238;SDS011;6686;51.292;4.166;2023-02-22T11:36:42;23.40;;;18.13;;
13238;SDS011;6686;51.292;4.166;2023-02-22T11:39:31;22.80;;;18.23;;
13238;SDS011;6686;51.292;4.166;2023-02-22T11:42:27;27.37;;;19.23;;
13238;SDS011;6686;51.292;4.166;2023-02-22T11:45:19;24.60;;;19.23;;
13238;SDS011;6686;51.292;4.166;2023-02-22T11:48:17;27.57;;;20.33;;
13238;SDS011;6686;51.292;4.166;2023-02-22T11:50:58;27.57;;;20.07;;
13238;SDS011;6686;51.292;4.166;2023-02-22T11:56:44;32.10;;;21.50;;
13238;SDS011;6686;51.292;4.166;2023-02-22T11:59:33;29.83;;;21.80;;
13238;SDS011;6686;51.292;4.166;2023-02-22T12:05:22;32.22;;;26.92;;
13238;SDS011;6686;51.292;4.166;2023-02-22T12:08:08;30.97;;;23.00;;
13238;SDS011;6686;51.292;4.166;2023-02-22T12:11:03;27.90;;;23.13;;
13238;SDS011;6686;51.292;4.166;2023-02-22T12:13:59;32.10;;;23.57;;
13238;SDS011;6686;51.292;4.166;2023-02-22T12:23:04;30.03;;;24.97;;
13238;SDS011;6686;51.292;4.166;2023-02-22T12:26:00;32.50;;;25.53;;
13238;SDS011;6686;51.292;4.166;2023-02-22T12:28:46;37.97;;;26.00;;
13238;SDS011;6686;51.292;4.166;2023-02-22T12:31:33;35.55;;;29.65;;
13238;SDS011;6686;51.292;4.166;2023-02-22T12:34:22;33.17;;;25.27;;
13238;SDS011;6686;51.292;4.166;2023-02-22T12:43:02;32.77;;;26.20;;
13238;SDS011;6686;51.292;4.166;2023-02-22T12:45:50;33.10;;;26.73;;
13238;SDS011;6686;51.292;4.166;2023-02-22T12:54:53;31.83;;;27.47;;
13238;SDS011;6686;51.292;4.166;2023-02-22T12:58:00;36.73;;;27.57;;
13238;SDS011;6686;51.292;4.166;2023-02-22T13:00:55;34.73;;;27.83;;
13238;SDS011;6686;51.292;4.166;2023-02-22T13:03:41;34.10;;;28.20;;
13238;SDS011;6686;51.292;4.166;2023-02-22T13:06:31;38.40;;;29.43;;
13238;SDS011;6686;51.292;4.166;2023-02-22T13:09:19;37.97;;;30.73;;
13238;SDS011;6686;51.292;4.166;2023-02-22T13:12:04;43.27;;;31.13;;
13238;SDS011;6686;51.292;4.166;2023-02-22T13:27:39;51.27;;;38.30;;
13238;SDS011;6686;51.292;4.166;2023-02-22T13:30:36;54.85;;;45.30;;
13238;SDS011;6686;51.292;4.166;2023-02-22T13:33:31;53.60;;;41.43;;
13238;SDS011;6686;51.292;4.166;2023-02-22T13:39:45;60.27;;;44.93;;
13238;SDS011;6686;51.292;4.166;2023-02-22T13:45:45;67.20;;;46.83;;
13238;SDS011;6686;51.292;4.166;2023-02-22T13:48:37;78.12;;;58.38;;
13238;SDS011;6686;51.292;4.166;2023-02-22T13:54:35;90.20;;;59.03;;
13238;SDS011;6686;51.292;4.166;2023-02-22T13:57:36;93.43;;;56.53;;
13238;SDS011;6686;51.292;4.166;2023-02-22T14:00:37;82.33;;;54.83;;
13238;SDS011;6686;51.292;4.166;2023-02-22T14:05:59;66.43;;;47.93;;
13238;SDS011;6686;51.292;4.166;2023-02-22T14:08:45;57.93;;;43.27;;
13238;SDS011;6686;51.292;4.166;2023-02-22T14:14:16;53.40;;;41.20;;
13238;SDS011;6686;51.292;4.166;2023-02-22T14:17:19;58.00;;;41.40;;
13238;SDS011;6686;51.292;4.166;2023-02-22T14:26:22;44.87;;;33.53;;
13238;SDS011;6686;51.292;4.166;2023-02-22T14:29:20;52.43;;;37.97;;
13238;SDS011;6686;51.292;4.166;2023-02-22T14:32:06;53.10;;;35.93;;
13238;SDS011;6686;51.292;4.166;2023-02-22T14:34:53;54.80;;;38.30;;
13238;SDS011;6686;51.292;4.166;2023-02-22T14:37:41;54.63;;;37.90;;
13238;SDS011;6686;51.292;4.166;2023-02-22T14:40:31;56.70;;;38.50;;
13238;SDS011;6686;51.292;4.166;2023-02-22T14:43:20;56.60;;;38.53;;
13238;SDS011;6686;51.292;4.166;2023-02-22T14:46:06;58.93;;;39.70;;
13238;SDS011;6686;51.292;4.166;2023-02-22T14:48:59;57.40;;;39.73;;
13238;SDS011;6686;51.292;4.166;2023-02-22T14:51:52;65.97;;;41.50;;
13238;SDS011;6686;51.292;4.166;2023-02-22T14:55:26;65.17;;;42.87;;
13238;SDS011;6686;51.292;4.166;2023-02-22T14:57:50;68.13;;;43.87;;
13238;SDS011;6686;51.292;4.166;2023-02-22T15:00:36;96.47;;;60.50;;
13238;SDS011;6686;51.292;4.166;2023-02-22T15:09:17;101.57;;;53.13;;
13238;SDS011;6686;51.292;4.166;2023-02-22T15:12:13;90.83;;;48.93;;
13238;SDS011;6686;51.292;4.166;2023-02-22T15:15:32;90.27;;;48.70;;
13238;SDS011;6686;51.292;4.166;2023-02-22T15:17:55;85.93;;;46.47;;
13238;SDS011;6686;51.292;4.166;2023-02-22T15:20:41;87.67;;;48.93;;
13238;SDS011;6686;51.292;4.166;2023-02-22T15:23:29;90.00;;;55.88;;
13238;SDS011;6686;51.292;4.166;2023-02-22T15:26:18;77.57;;;47.70;;
13238;SDS011;6686;51.292;4.166;2023-02-22T15:29:12;79.27;;;46.20;;
13238;SDS011;6686;51.292;4.166;2023-02-22T15:31:54;77.90;;;44.90;;
13238;SDS011;6686;51.292;4.166;2023-02-22T15:34:40;74.50;;;44.83;;
13238;SDS011;6686;51.292;4.166;2023-02-22T15:37:26;77.90;;;43.60;;
13238;SDS011;6686;51.292;4.166;2023-02-22T15:40:15;81.32;;;52.85;;
13238;SDS011;6686;51.292;4.166;2023-02-22T15:43:04;76.37;;;50.53;;
13238;SDS011;6686;51.292;4.166;2023-02-22T15:45:50;66.53;;;41.53;;
13238;SDS011;6686;51.292;4.166;2023-02-22T15:48:36;69.80;;;42.97;;
13238;SDS011;6686;51.292;4.166;2023-02-22T15:51:22;76.80;;;49.22;;
13238;SDS011;6686;51.292;4.166;2023-02-22T15:54:08;65.93;;;43.73;;
13238;SDS011;6686;51.292;4.166;2023-02-22T15:56:57;70.83;;;41.73;;
13238;SDS011;6686;51.292;4.166;2023-02-22T15:59:51;64.37;;;40.93;;
13238;SDS011;6686;51.292;4.166;2023-02-22T16:02:33;71.20;;;40.17;;
13238;SDS011;6686;51.292;4.166;2023-02-22T16:05:18;66.53;;;40.73;;
13238;SDS011;6686;51.292;4.166;2023-02-22T16:08:08;71.10;;;42.07;;
13238;SDS011;6686;51.292;4.166;2023-02-22T16:13:35;73.20;;;41.93;;
13238;SDS011;6686;51.292;4.166;2023-02-22T16:16:23;79.37;;;50.60;;
13238;SDS011;6686;51.292;4.166;2023-02-22T16:19:42;74.68;;;50.42;;
13238;SDS011;6686;51.292;4.166;2023-02-22T16:22:55;70.03;;;43.10;;
13238;SDS011;6686;51.292;4.166;2023-02-22T16:28:24;73.47;;;47.58;;
13238;SDS011;6686;51.292;4.166;2023-02-22T16:31:08;67.93;;;42.00;;
13238;SDS011;6686;51.292;4.166;2023-02-22T16:33:54;73.87;;;41.83;;
13238;SDS011;6686;51.292;4.166;2023-02-22T16:36:41;71.73;;;40.17;;
13238;SDS011;6686;51.292;4.166;2023-02-22T16:39:27;67.93;;;41.40;;
13238;SDS011;6686;51.292;4.166;2023-02-22T16:42:14;76.50;;;41.67;;
13238;SDS011;6686;51.292;4.166;2023-02-22T16:44:58;71.17;;;41.90;;
13238;SDS011;6686;51.292;4.166;2023-02-22T16:47:44;85.05;;;52.03;;
13238;SDS011;6686;51.292;4.166;2023-02-22T16:50:30;77.40;;;45.23;;
13238;SDS011;6686;51.292;4.166;2023-02-22T16:53:17;75.73;;;44.07;;
13238;SDS011;6686;51.292;4.166;2023-02-22T16:56:03;82.17;;;43.60;;
13238;SDS011;6686;51.292;4.166;2023-02-22T16:58:48;78.13;;;43.40;;
13238;SDS011;6686;51.292;4.166;2023-02-22T17:01:35;84.33;;;44.10;;
13238;SDS011;6686;51.292;4.166;2023-02-22T17:04:22;75.87;;;43.17;;
13238;SDS011;6686;51.292;4.166;2023-02-22T17:07:07;79.20;;;43.83;;
13238;SDS011;6686;51.292;4.166;2023-02-22T17:09:53;74.37;;;42.87;;
13238;SDS011;6686;51.292;4.166;2023-02-22T17:12:39;76.93;;;44.33;;
13238;SDS011;6686;51.292;4.166;2023-02-22T17:15:27;76.83;;;42.90;;
13238;SDS011;6686;51.292;4.166;2023-02-22T17:18:12;80.67;;;42.93;;
13238;SDS011;6686;51.292;4.166;2023-02-22T17:21:00;79.40;;;42.77;;
13238;SDS011;6686;51.292;4.166;2023-02-22T17:23:46;81.43;;;45.00;;
13238;SDS011;6686;51.292;4.166;2023-02-22T17:26:35;77.43;;;43.13;;
13238;SDS011;6686;51.292;4.166;2023-02-22T17:29:21;80.00;;;44.67;;
13238;SDS011;6686;51.292;4.166;2023-02-22T17:32:07;82.00;;;45.60;;
13238;SDS011;6686;51.292;4.166;2023-02-22T17:34:53;84.80;;;45.17;;
13238;SDS011;6686;51.292;4.166;2023-02-22T17:37:39;80.30;;;45.27;;
13238;SDS011;6686;51.292;4.166;2023-02-22T17:40:29;75.83;;;44.20;;
13238;SDS011;6686;51.292;4.166;2023-02-22T17:43:11;75.70;;;43.37;;
13238;SDS011;6686;51.292;4.166;2023-02-22T17:45:57;78.40;;;44.13;;
13238;SDS011;6686;51.292;4.166;2023-02-22T17:48:42;68.90;;;41.67;;
13238;SDS011;6686;51.292;4.166;2023-02-22T17:51:29;80.20;;;44.17;;
13238;SDS011;6686;51.292;4.166;2023-02-22T17:54:15;76.57;;;44.23;;
13238;SDS011;6686;51.292;4.166;2023-02-22T17:57:02;78.83;;;44.27;;
13238;SDS011;6686;51.292;4.166;2023-02-22T17:59:48;77.20;;;44.27;;
13238;SDS011;6686;51.292;4.166;2023-02-22T18:02:34;80.17;;;43.77;;
13238;SDS011;6686;51.292;4.166;2023-02-22T18:05:20;72.87;;;43.40;;
13238;SDS011;6686;51.292;4.166;2023-02-22T18:08:06;78.67;;;43.87;;
13238;SDS011;6686;51.292;4.166;2023-02-22T18:10:52;72.30;;;42.87;;
13238;SDS011;6686;51.292;4.166;2023-02-22T18:13:38;76.13;;;43.97;;
13238;SDS011;6686;51.292;4.166;2023-02-22T18:16:24;72.63;;;42.43;;
13238;SDS011;6686;51.292;4.166;2023-02-22T18:19:10;102.03;;;60.90;;
13238;SDS011;6686;51.292;4.166;2023-02-22T18:21:56;74.87;;;46.43;;
13238;SDS011;6686;51.292;4.166;2023-02-22T18:24:42;72.23;;;42.73;;
13238;SDS011;6686;51.292;4.166;2023-02-22T18:27:31;75.63;;;42.60;;
13238;SDS011;6686;51.292;4.166;2023-02-22T18:30:16;73.27;;;41.13;;
13238;SDS011;6686;51.292;4.166;2023-02-22T18:33:04;69.87;;;39.80;;
13238;SDS011;6686;51.292;4.166;2023-02-22T18:35:50;70.23;;;39.30;;
13238;SDS011;6686;51.292;4.166;2023-02-22T18:38:37;76.90;;;41.77;;